createdAt,value
2022-12-12T00:00:08.624Z,17.27
2022-12-12T00:02:38.067Z,18.15
2022-12-12T00:05:05.549Z,22.00
2022-12-12T00:07:31.367Z,23.75
2022-12-12T00:09:57.153Z,19.42
2022-12-12T00:12:22.936Z,22.90
2022-12-12T00:14:48.700Z,24.55
2022-12-12T00:17:14.507Z,28.83
2022-12-12T00:19:40.347Z,26.58
2022-12-12T00:22:06.112Z,29.15
2022-12-12T00:24:31.897Z,33.03
2022-12-12T00:26:57.626Z,33.33
2022-12-12T00:29:23.363Z,30.20
2022-12-12T00:31:49.182Z,38.50
2022-12-12T00:34:14.940Z,32.42
2022-12-12T00:36:40.746Z,31.75
2022-12-12T00:39:06.699Z,36.28
2022-12-12T00:41:32.469Z,33.33
2022-12-12T00:43:58.282Z,28.17
2022-12-12T00:46:25.172Z,30.85
2022-12-12T00:48:54.690Z,33.53
2022-12-12T00:51:21.978Z,30.60
2022-12-12T00:53:48.764Z,35.88
2022-12-12T00:56:16.482Z,37.60
2022-12-12T00:58:42.813Z,33.80
2022-12-12T01:01:11.342Z,32.80
2022-12-12T01:03:39.700Z,31.20
2022-12-12T01:06:06.154Z,30.05
2022-12-12T01:08:32.547Z,31.17
2022-12-12T01:10:58.345Z,36.03
2022-12-12T01:13:25.356Z,32.28
2022-12-12T01:15:51.485Z,33.30
2022-12-12T01:18:18.533Z,29.50
2022-12-12T01:20:44.812Z,35.58
2022-12-12T01:23:11.119Z,30.77
2022-12-12T01:25:37.350Z,33.65
2022-12-12T01:28:04.031Z,33.80
2022-12-12T01:30:29.925Z,33.15
2022-12-12T01:32:55.885Z,34.00
2022-12-12T01:35:23.236Z,30.40
2022-12-12T01:37:49.355Z,31.70
2022-12-12T01:40:19.545Z,30.90
2022-12-12T01:42:46.032Z,32.88
2022-12-12T01:45:48.880Z,32.05
2022-12-12T01:48:14.632Z,27.58
2022-12-12T01:50:43.143Z,29.98
2022-12-12T01:53:10.878Z,27.70
2022-12-12T01:55:36.757Z,26.17
2022-12-12T01:58:02.757Z,30.15
2022-12-12T02:00:28.574Z,28.98
2022-12-12T02:05:57.006Z,28.97
2022-12-12T02:08:24.779Z,28.10
2022-12-12T02:10:51.172Z,31.17
2022-12-12T02:13:23.615Z,30.20
2022-12-12T02:16:23.614Z,32.67
2022-12-12T02:19:19.766Z,32.47
2022-12-12T02:21:48.506Z,32.08
2022-12-12T02:24:39.141Z,27.05
2022-12-12T02:27:23.828Z,35.38
2022-12-12T02:30:01.772Z,30.80
2022-12-12T02:32:37.911Z,28.50
2022-12-12T02:35:19.537Z,31.55
2022-12-12T02:37:56.588Z,26.77
2022-12-12T02:40:34.339Z,31.73
2022-12-12T02:43:14.150Z,31.15
2022-12-12T02:45:47.042Z,29.30
2022-12-12T02:48:12.843Z,29.80
2022-12-12T02:50:41.514Z,30.02
2022-12-12T02:53:07.458Z,32.33
2022-12-12T02:55:36.372Z,27.25
2022-12-12T02:58:05.168Z,33.15
2022-12-12T03:00:40.077Z,33.25
2022-12-12T03:03:44.351Z,31.08
2022-12-12T03:06:50.744Z,34.75
2022-12-12T03:09:39.280Z,34.08
2022-12-12T03:12:22.228Z,33.20
2022-12-12T03:15:16.375Z,34.17
2022-12-12T03:17:55.387Z,35.22
2022-12-12T03:20:46.935Z,38.50
2022-12-12T03:23:21.789Z,37.45
2022-12-12T03:26:11.273Z,35.83
2022-12-12T03:28:58.762Z,33.80
2022-12-12T03:31:30.819Z,39.40
2022-12-12T03:34:01.566Z,39.50
2022-12-12T03:36:31.863Z,36.30
2022-12-12T03:39:14.853Z,39.28
2022-12-12T03:41:47.286Z,34.58
2022-12-12T03:44:15.898Z,36.92
2022-12-12T03:46:48.595Z,36.33
2022-12-12T03:49:27.147Z,42.28
2022-12-12T03:52:25.891Z,35.83
2022-12-12T03:54:59.891Z,37.30
2022-12-12T03:57:35.525Z,33.15
2022-12-12T04:00:08.031Z,33.10
2022-12-12T04:02:55.912Z,33.80
2022-12-12T04:06:06.963Z,31.70
2022-12-12T04:08:34.188Z,34.47
2022-12-12T04:11:30.463Z,37.63
2022-12-12T04:14:10.230Z,34.22
2022-12-12T04:16:41.337Z,39.53
2022-12-12T04:19:43.962Z,36.28
2022-12-12T04:22:38.455Z,36.03
2022-12-12T04:25:16.300Z,36.53
2022-12-12T04:27:50.010Z,35.95
2022-12-12T04:30:16.715Z,35.45
2022-12-12T04:32:49.076Z,39.10
2022-12-12T04:35:17.191Z,41.80
2022-12-12T04:37:53.284Z,42.42
2022-12-12T04:40:31.956Z,40.05
2022-12-12T04:43:02.606Z,36.47
2022-12-12T04:45:33.852Z,43.22
2022-12-12T04:48:02.655Z,40.03
2022-12-12T04:50:31.394Z,38.28
2022-12-12T04:53:01.435Z,44.85
2022-12-12T04:55:32.384Z,37.53
2022-12-12T04:57:58.635Z,30.02
2022-12-12T05:00:29.437Z,34.88
2022-12-12T05:03:02.970Z,37.92
2022-12-12T05:05:31.366Z,38.28
2022-12-12T05:08:28.921Z,39.38
2022-12-12T05:10:58.771Z,45.38
2022-12-12T05:13:28.633Z,41.38
2022-12-12T05:15:57.019Z,39.22
2022-12-12T05:18:23.364Z,46.17
2022-12-12T05:20:50.031Z,43.25
2022-12-12T05:23:16.012Z,45.90
2022-12-12T05:25:41.830Z,44.92
2022-12-12T05:28:07.642Z,42.80
2022-12-12T05:30:33.793Z,45.17
2022-12-12T05:32:59.802Z,46.85
2022-12-12T05:35:26.279Z,43.55
2022-12-12T05:37:52.464Z,44.17
2022-12-12T05:40:19.460Z,43.92
2022-12-12T05:42:45.260Z,45.67
2022-12-12T05:45:11.690Z,45.45
2022-12-12T05:47:37.736Z,45.72
2022-12-12T05:50:05.276Z,46.67
2022-12-12T05:52:31.320Z,43.45
2022-12-12T05:54:57.294Z,46.42
2022-12-12T05:57:23.726Z,45.97
2022-12-12T05:59:49.661Z,46.88
2022-12-12T06:02:16.096Z,44.65
2022-12-12T06:04:42.100Z,44.60
2022-12-12T06:07:08.617Z,50.78
2022-12-12T06:09:35.689Z,44.90
2022-12-12T06:12:01.787Z,45.55
2022-12-12T06:14:27.848Z,41.88
2022-12-12T06:16:53.695Z,46.60
2022-12-12T06:19:20.097Z,48.08
2022-12-12T06:21:46.544Z,46.88
2022-12-12T06:24:12.769Z,44.58
2022-12-12T06:26:38.685Z,49.85
2022-12-12T06:29:04.793Z,45.17
2022-12-12T06:31:30.803Z,48.70
2022-12-12T06:33:56.689Z,43.15
2022-12-12T06:36:24.348Z,45.78
2022-12-12T06:38:52.659Z,42.45
2022-12-12T06:41:19.353Z,42.25
2022-12-12T06:43:45.211Z,38.25
2022-12-12T06:46:23.609Z,45.78
2022-12-12T06:48:50.063Z,42.08
2022-12-12T06:51:19.620Z,34.78
2022-12-12T06:53:46.090Z,39.08
2022-12-12T06:56:20.746Z,37.88
2022-12-12T06:58:47.581Z,40.90
2022-12-12T07:01:14.974Z,41.72
2022-12-12T07:03:41.395Z,41.05
2022-12-12T07:06:07.660Z,44.65
2022-12-12T07:08:34.635Z,40.20
2022-12-12T07:11:06.133Z,42.80
2022-12-12T07:13:32.402Z,45.40
2022-12-12T07:15:58.438Z,43.45
2022-12-12T07:18:24.261Z,44.78
2022-12-12T07:20:50.096Z,43.65
2022-12-12T07:23:15.894Z,45.45
2022-12-12T07:25:44.104Z,44.58
2022-12-12T07:28:12.019Z,42.08
2022-12-12T07:30:40.053Z,43.97
2022-12-12T07:33:06.349Z,44.58
2022-12-12T07:35:32.472Z,41.75
2022-12-12T07:37:58.481Z,42.78
2022-12-12T07:40:24.543Z,39.95
2022-12-12T07:42:50.312Z,38.65
2022-12-12T07:45:18.419Z,44.20
2022-12-12T07:47:44.856Z,42.78
2022-12-12T07:50:11.057Z,44.78
2022-12-12T07:52:37.035Z,53.63
2022-12-12T07:55:03.223Z,66.80
2022-12-12T07:57:30.075Z,61.45
2022-12-12T07:59:56.866Z,65.43
2022-12-12T08:02:23.225Z,50.33
2022-12-12T08:04:49.138Z,48.88
2022-12-12T08:07:15.151Z,45.50
2022-12-12T08:09:41.072Z,48.55
2022-12-12T08:12:07.085Z,48.08
2022-12-12T08:14:33.512Z,44.58
2022-12-12T08:16:59.706Z,42.40
2022-12-12T08:19:25.506Z,45.65
2022-12-12T08:21:51.360Z,43.60
2022-12-12T08:24:17.535Z,40.45
2022-12-12T08:26:44.374Z,40.67
2022-12-12T08:29:11.051Z,39.95
2022-12-12T08:31:38.238Z,39.47
2022-12-12T08:34:04.853Z,36.83
2022-12-12T08:36:34.121Z,38.83
2022-12-12T08:39:11.983Z,41.67
2022-12-12T08:41:41.193Z,37.08
2022-12-12T08:44:09.396Z,40.45
2022-12-12T08:46:35.247Z,33.88
2022-12-12T08:49:01.032Z,35.30
2022-12-12T08:51:26.966Z,39.33
2022-12-12T08:53:53.372Z,34.03
2022-12-12T08:56:21.010Z,36.10
2022-12-12T08:58:46.866Z,33.95
2022-12-12T09:01:15.116Z,36.53
2022-12-12T09:03:41.102Z,37.40
2022-12-12T09:06:08.389Z,33.78
2022-12-12T09:08:34.287Z,36.55
2022-12-12T09:11:00.125Z,33.47
2022-12-12T09:13:25.977Z,31.08
2022-12-12T09:15:52.439Z,30.00
2022-12-12T09:18:19.943Z,29.52
2022-12-12T09:20:49.984Z,29.30
2022-12-12T09:23:16.673Z,31.08
2022-12-12T09:25:43.028Z,36.35
2022-12-12T09:28:11.245Z,33.85
2022-12-12T09:30:37.530Z,29.73
2022-12-12T09:33:03.568Z,32.05
2022-12-12T09:35:29.493Z,33.72
2022-12-12T09:37:55.283Z,31.10
2022-12-12T09:40:30.539Z,32.95
2022-12-12T09:42:56.446Z,34.58
2022-12-12T09:45:22.786Z,31.38
2022-12-12T09:47:57.758Z,29.60
2022-12-12T09:50:34.504Z,32.72
2022-12-12T09:53:09.791Z,34.88
2022-12-12T09:55:57.521Z,32.50
2022-12-12T09:58:50.122Z,31.45
2022-12-12T10:01:29.311Z,33.08
2022-12-12T10:04:09.821Z,36.58
2022-12-12T10:06:46.710Z,33.63
2022-12-12T10:09:47.940Z,34.35
2022-12-12T10:12:16.248Z,34.67
2022-12-12T10:14:45.990Z,36.22
2022-12-12T10:17:18.017Z,32.20
2022-12-12T10:19:55.235Z,32.80
2022-12-12T10:22:51.370Z,35.65
2022-12-12T10:25:32.203Z,31.70
2022-12-12T10:28:15.430Z,32.03
2022-12-12T10:31:09.366Z,35.53
2022-12-12T10:33:44.418Z,43.60
2022-12-12T10:36:40.980Z,43.55
2022-12-12T10:39:54.098Z,35.28
2022-12-12T10:42:50.460Z,34.70
2022-12-12T10:45:28.688Z,34.42
2022-12-12T10:47:54.577Z,36.08
2022-12-12T10:50:27.093Z,35.75
2022-12-12T10:52:53.249Z,35.72
2022-12-12T10:55:24.465Z,32.20
2022-12-12T10:58:02.973Z,32.47
2022-12-12T11:00:41.600Z,32.40
2022-12-12T11:03:27.447Z,36.28
2022-12-12T11:05:55.559Z,29.40
2022-12-12T11:08:31.214Z,30.10
2022-12-12T11:11:18.809Z,35.90
2022-12-12T11:13:58.584Z,31.58
2022-12-12T11:16:30.101Z,28.67
2022-12-12T11:19:04.404Z,30.73
2022-12-12T11:21:35.365Z,30.40
2022-12-12T11:24:08.632Z,35.42
2022-12-12T11:26:55.422Z,29.50
2022-12-12T11:29:30.468Z,30.65
2022-12-12T11:31:58.006Z,32.28
2022-12-12T11:34:26.964Z,26.58
2022-12-12T11:36:53.737Z,27.83
2022-12-12T11:39:31.988Z,25.13
2022-12-12T11:42:04.478Z,27.45
2022-12-12T11:44:35.668Z,24.55
2022-12-12T11:47:27.712Z,26.38
2022-12-12T11:49:59.340Z,28.88
2022-12-12T11:52:31.020Z,28.45
2022-12-12T11:54:58.021Z,28.58
2022-12-12T11:58:07.721Z,26.92
2022-12-12T12:01:01.380Z,21.95
2022-12-12T12:04:02.423Z,20.23
2022-12-12T12:06:55.426Z,22.05
2022-12-12T12:09:42.864Z,20.23
2022-12-12T12:12:27.471Z,16.55
2022-12-12T12:15:14.097Z,19.65
2022-12-12T12:18:16.970Z,15.65
2022-12-12T12:21:13.022Z,17.52
2022-12-12T12:23:58.598Z,16.73
2022-12-12T12:26:51.048Z,19.98
2022-12-12T12:29:38.613Z,20.65
2022-12-12T12:32:16.219Z,18.27
2022-12-12T12:35:01.869Z,19.85
2022-12-12T12:37:46.110Z,18.52
2022-12-12T12:40:40.949Z,20.95
2022-12-12T12:43:42.273Z,18.10
2022-12-12T12:46:29.173Z,19.25
2022-12-12T12:49:24.115Z,22.50
2022-12-12T12:51:56.695Z,21.33
2022-12-12T12:54:26.277Z,20.83
2022-12-12T12:57:13.990Z,21.33
2022-12-12T12:59:43.359Z,25.38
2022-12-12T13:02:34.199Z,22.95
2022-12-12T13:05:16.052Z,19.70
2022-12-12T13:08:01.642Z,25.60
2022-12-12T13:10:29.072Z,21.95
2022-12-12T13:13:11.509Z,21.55
2022-12-12T13:15:46.016Z,21.83
2022-12-12T13:18:14.784Z,20.50
2022-12-12T13:21:02.364Z,20.58
2022-12-12T13:23:46.741Z,22.05
2022-12-12T13:26:23.060Z,17.63
2022-12-12T13:28:58.992Z,20.73
2022-12-12T13:31:55.580Z,21.30
2022-12-12T13:34:26.006Z,20.52
2022-12-12T13:36:53.173Z,19.63
2022-12-12T13:39:30.992Z,21.20
2022-12-12T13:42:00.977Z,20.15
2022-12-12T13:44:35.731Z,24.02
2022-12-12T13:47:03.732Z,19.40
2022-12-12T13:49:31.966Z,21.65
2022-12-12T13:52:31.977Z,20.45
2022-12-12T13:55:13.213Z,23.45
2022-12-12T13:58:07.274Z,25.67
2022-12-12T14:00:35.355Z,23.67
2022-12-12T14:03:10.214Z,25.77
2022-12-12T14:05:41.629Z,24.38
2022-12-12T14:08:13.467Z,22.27
2022-12-12T14:10:45.626Z,27.92
2022-12-12T14:13:20.506Z,21.15
2022-12-12T14:15:48.764Z,24.73
2022-12-12T14:18:30.349Z,25.17
2022-12-12T14:21:09.878Z,24.35
2022-12-12T14:23:52.559Z,26.00
2022-12-12T14:26:27.140Z,26.00
2022-12-12T14:29:33.206Z,23.17
2022-12-12T14:32:10.979Z,24.80
2022-12-12T14:35:01.363Z,26.40
2022-12-12T14:37:51.245Z,27.30
2022-12-12T14:40:30.528Z,24.42
2022-12-12T14:43:18.496Z,28.50
2022-12-12T14:45:50.068Z,26.83
2022-12-12T14:48:24.491Z,27.27
2022-12-12T14:50:58.144Z,27.60
2022-12-12T14:53:33.100Z,26.30
2022-12-12T14:56:02.801Z,27.92
2022-12-12T14:58:32.816Z,25.05
2022-12-12T15:01:01.668Z,27.58
2022-12-12T15:03:49.094Z,23.75
2022-12-12T15:06:25.878Z,27.40
2022-12-12T15:08:52.292Z,24.23
2022-12-12T15:11:24.007Z,24.73
2022-12-12T15:13:50.828Z,26.77
2022-12-12T15:16:18.362Z,27.92
2022-12-12T15:18:44.397Z,28.08
2022-12-12T15:21:10.301Z,26.88
2022-12-12T15:23:36.178Z,28.08
2022-12-12T15:26:02.131Z,23.77
2022-12-12T15:28:28.084Z,23.55
2022-12-12T15:30:54.528Z,22.85
2022-12-12T15:33:22.905Z,25.42
2022-12-12T15:36:02.190Z,22.63
2022-12-12T15:38:29.387Z,22.35
2022-12-12T15:40:58.309Z,27.00
2022-12-12T15:43:27.086Z,25.70
2022-12-12T15:46:06.166Z,21.67
2022-12-12T15:48:32.068Z,24.63
2022-12-12T15:51:06.298Z,26.73
2022-12-12T15:53:41.221Z,23.35
2022-12-12T15:56:13.588Z,24.98
2022-12-12T15:58:46.040Z,25.75
2022-12-12T16:01:20.081Z,29.02
2022-12-12T16:04:01.986Z,27.20
2022-12-12T16:06:36.771Z,25.17
2022-12-12T16:09:11.572Z,26.33
2022-12-12T16:11:37.512Z,17.77
2022-12-12T16:14:05.070Z,24.25
2022-12-12T16:16:46.576Z,26.92
2022-12-12T16:19:30.969Z,25.60
2022-12-12T16:22:02.683Z,24.33
2022-12-12T16:24:28.553Z,23.15
2022-12-12T16:26:59.386Z,21.33
2022-12-12T16:29:25.591Z,22.05
2022-12-12T16:31:51.719Z,22.45
2022-12-12T16:34:18.189Z,24.25
2022-12-12T16:36:44.193Z,22.35
2022-12-12T16:39:10.892Z,25.30
2022-12-12T16:41:36.843Z,28.35
2022-12-12T16:44:02.741Z,30.15
2022-12-12T16:46:28.668Z,28.40
2022-12-12T16:48:56.473Z,30.75
2022-12-12T16:51:29.487Z,25.50
2022-12-12T16:53:55.608Z,26.92
2022-12-12T16:56:21.513Z,26.00
2022-12-12T16:58:47.442Z,26.38
2022-12-12T17:01:16.201Z,24.27
2022-12-12T17:03:42.462Z,28.10
2022-12-12T17:06:08.515Z,27.40
2022-12-12T17:08:34.608Z,24.83
2022-12-12T17:11:10.688Z,23.83
2022-12-12T17:13:42.101Z,24.25
2022-12-12T17:16:08.036Z,26.52
2022-12-12T17:18:33.933Z,24.25
2022-12-12T17:20:59.793Z,21.83
2022-12-12T17:23:28.246Z,21.20
2022-12-12T17:26:00.715Z,21.63
2022-12-12T17:28:30.228Z,18.38
2022-12-12T17:30:56.161Z,23.98
2022-12-12T17:33:22.039Z,19.00
2022-12-12T17:36:04.890Z,15.98
2022-12-12T17:38:31.183Z,18.35
2022-12-12T17:41:01.419Z,17.33
2022-12-12T17:43:27.625Z,16.08
2022-12-12T17:46:08.914Z,19.15
2022-12-12T17:48:35.401Z,18.17
2022-12-12T17:51:04.507Z,14.18
2022-12-12T17:53:35.764Z,15.48
2022-12-12T17:56:11.607Z,14.20
2022-12-12T17:58:40.235Z,16.15
2022-12-12T18:01:16.186Z,17.83
2022-12-12T18:03:42.969Z,17.52
2022-12-12T18:06:09.948Z,17.25
2022-12-12T18:08:36.606Z,17.65
2022-12-12T18:11:06.873Z,19.05
2022-12-12T18:13:32.780Z,19.52
2022-12-12T18:15:58.994Z,17.63
2022-12-12T18:18:26.073Z,18.25
2022-12-12T18:20:52.421Z,19.30
2022-12-12T18:23:19.105Z,17.83
2022-12-12T18:25:46.169Z,16.88
2022-12-12T18:28:12.807Z,19.35
2022-12-12T18:30:41.800Z,17.92
2022-12-12T18:33:08.164Z,20.38
2022-12-12T18:35:34.077Z,20.30
2022-12-12T18:38:00.419Z,21.45
2022-12-12T18:40:27.267Z,20.38
2022-12-12T18:42:53.152Z,20.38
2022-12-12T18:45:19.043Z,20.73
2022-12-12T18:47:46.415Z,19.98
2022-12-12T18:50:13.111Z,20.35
2022-12-12T18:52:39.015Z,20.73
2022-12-12T18:55:05.394Z,21.08
2022-12-12T18:57:31.319Z,20.77
2022-12-12T18:59:57.228Z,23.25
2022-12-12T19:02:23.147Z,22.75
2022-12-12T19:04:49.640Z,21.42
2022-12-12T19:07:17.811Z,20.02
2022-12-12T19:09:46.406Z,19.17
2022-12-12T19:12:12.418Z,19.13
2022-12-12T19:15:08.220Z,19.95
2022-12-12T19:17:26.408Z,18.23
2022-12-12T19:19:53.366Z,21.80
2022-12-12T19:22:43.774Z,19.30
2022-12-12T19:25:05.613Z,21.33
2022-12-12T19:27:31.567Z,24.52
2022-12-12T19:29:57.485Z,20.73
2022-12-12T19:32:23.340Z,19.65
2022-12-12T19:34:49.196Z,21.85
2022-12-12T19:37:14.976Z,19.30
2022-12-12T19:39:41.289Z,21.33
2022-12-12T19:42:07.188Z,20.45
2022-12-12T19:44:33.044Z,19.73
2022-12-12T19:46:58.882Z,19.95
2022-12-12T19:49:24.704Z,20.63
2022-12-12T19:51:50.656Z,19.02
2022-12-12T19:54:19.126Z,21.33
2022-12-12T19:56:45.771Z,19.75
2022-12-12T19:59:14.227Z,20.50
2022-12-12T20:01:40.985Z,20.58
2022-12-12T20:04:12.837Z,22.45
2022-12-12T20:06:45.112Z,20.90
2022-12-12T20:09:33.885Z,22.88
2022-12-12T20:12:00.348Z,21.02
2022-12-12T20:14:29.884Z,21.95
2022-12-12T20:16:56.430Z,20.40
2022-12-12T20:19:24.263Z,21.80
2022-12-12T20:22:05.934Z,22.63
2022-12-12T20:24:33.419Z,22.33
2022-12-12T20:27:02.254Z,24.95
2022-12-12T20:29:28.180Z,23.95
2022-12-12T20:31:54.100Z,23.92
2022-12-12T20:34:23.718Z,22.88
2022-12-12T20:36:49.799Z,26.17
2022-12-12T20:39:18.798Z,24.10
2022-12-12T20:41:44.875Z,25.55
2022-12-12T20:44:11.951Z,21.70
2022-12-12T20:46:40.053Z,23.77
2022-12-12T20:49:08.676Z,22.55
2022-12-12T20:54:22.859Z,25.52
2022-12-12T20:56:49.164Z,23.20
2022-12-12T20:59:15.145Z,25.20
2022-12-12T21:01:41.105Z,26.90
2022-12-12T21:04:08.636Z,29.38
2022-12-12T21:06:50.427Z,29.08
2022-12-12T21:09:23.849Z,29.20
2022-12-12T21:11:56.339Z,31.63
2022-12-12T21:14:22.652Z,33.92
2022-12-12T21:16:48.519Z,33.35
2022-12-12T21:19:14.534Z,31.02
2022-12-12T21:21:42.463Z,34.78
2022-12-12T21:24:10.731Z,31.65
2022-12-12T21:26:36.579Z,32.35
2022-12-12T21:29:04.081Z,33.08
2022-12-12T21:31:33.135Z,32.33
2022-12-12T21:33:59.736Z,33.13
2022-12-12T21:36:27.497Z,34.92
2022-12-12T21:38:54.645Z,33.75
2022-12-12T21:41:22.088Z,33.88
2022-12-12T21:43:49.041Z,36.75
2022-12-12T21:46:20.340Z,36.80
2022-12-12T21:49:06.953Z,35.08
2022-12-12T21:51:32.919Z,33.45
2022-12-12T21:53:58.817Z,35.70
2022-12-12T21:56:24.602Z,31.35
2022-12-12T21:58:50.553Z,35.67
2022-12-12T22:01:18.943Z,35.60
2022-12-12T22:03:47.649Z,35.92
2022-12-12T22:06:13.427Z,37.67
2022-12-12T22:08:40.024Z,39.20
2022-12-12T22:11:06.956Z,36.13
2022-12-12T22:13:39.544Z,35.70
2022-12-12T22:16:09.806Z,37.03
2022-12-12T22:18:36.110Z,39.17
2022-12-12T22:21:06.956Z,35.33
2022-12-12T22:23:38.135Z,37.83
2022-12-12T22:26:24.146Z,35.58
2022-12-12T22:31:18.184Z,32.50
2022-12-12T22:33:45.003Z,33.50
2022-12-12T22:36:12.151Z,34.92
2022-12-12T22:38:38.641Z,34.17
2022-12-12T22:41:06.299Z,39.35
2022-12-12T22:43:32.593Z,34.25
2022-12-12T22:46:07.374Z,33.70
2022-12-12T22:48:34.229Z,34.40
2022-12-12T22:51:14.056Z,35.53
2022-12-12T22:53:44.189Z,32.72
2022-12-12T22:56:11.323Z,40.10
2022-12-12T22:58:37.262Z,33.40
2022-12-12T23:01:10.770Z,39.22
2022-12-12T23:03:37.095Z,36.50
2022-12-12T23:06:09.240Z,37.45
2022-12-12T23:08:35.056Z,40.88
2022-12-12T23:11:12.598Z,33.17
2022-12-12T23:13:42.000Z,39.60
2022-12-12T23:16:09.655Z,36.85
2022-12-12T23:18:37.230Z,42.67
2022-12-12T23:21:05.324Z,35.70
2022-12-12T23:23:31.212Z,39.22
2022-12-12T23:26:05.737Z,33.88
2022-12-12T23:28:31.604Z,34.33
2022-12-12T23:30:57.573Z,34.70
2022-12-12T23:33:23.836Z,32.13
2022-12-12T23:35:50.045Z,30.33
2022-12-12T23:38:15.937Z,30.08
2022-12-12T23:40:41.925Z,33.80
2022-12-12T23:43:07.880Z,28.13
2022-12-12T23:45:37.880Z,31.00
2022-12-12T23:48:05.089Z,28.55
2022-12-12T23:50:32.322Z,33.97
2022-12-12T23:52:58.663Z,28.17
2022-12-12T23:55:24.580Z,30.33
2022-12-12T23:57:51.239Z,30.33
